sensor_id;sensor_type;location;lat;lon;timestamp;temperature;humidity
20370;DHT22;10344;47.592;9.600;2023-12-20T00:01:50;5.80;99.90
20370;DHT22;10344;47.592;9.600;2023-12-20T00:04:15;5.80;99.90
20370;DHT22;10344;47.592;9.600;2023-12-20T00:06:41;5.70;99.90
20370;DHT22;10344;47.592;9.600;2023-12-20T00:09:09;5.60;99.90
20370;DHT22;10344;47.592;9.600;2023-12-20T00:11:34;5.50;99.90
20370;DHT22;10344;47.592;9.600;2023-12-20T00:14:00;5.40;99.90
20370;DHT22;10344;47.592;9.600;2023-12-20T00:16:30;5.30;99.90
20370;DHT22;10344;47.592;9.600;2023-12-20T00:18:57;5.20;99.90
20370;DHT22;10344;47.592;9.600;2023-12-20T00:21:22;5.10;99.90
20370;DHT22;10344;47.592;9.600;2023-12-20T00:23:51;5.10;99.90
20370;DHT22;10344;47.592;9.600;2023-12-20T00:26:17;5.00;99.90
20370;DHT22;10344;47.592;9.600;2023-12-20T00:28:42;5.00;99.90
20370;DHT22;10344;47.592;9.600;2023-12-20T00:31:08;5.00;99.90
20370;DHT22;10344;47.592;9.600;2023-12-20T00:33:33;4.90;99.90
20370;DHT22;10344;47.592;9.600;2023-12-20T00:35:59;4.80;99.90
20370;DHT22;10344;47.592;9.600;2023-12-20T00:38:25;4.80;99.90
20370;DHT22;10344;47.592;9.600;2023-12-20T00:40:50;4.80;99.90
20370;DHT22;10344;47.592;9.600;2023-12-20T00:43:16;4.80;99.90
20370;DHT22;10344;47.592;9.600;2023-12-20T00:45:41;4.90;99.90
20370;DHT22;10344;47.592;9.600;2023-12-20T00:48:07;4.90;99.90
20370;DHT22;10344;47.592;9.600;2023-12-20T00:50:33;4.80;99.90
20370;DHT22;10344;47.592;9.600;2023-12-20T00:52:58;4.80;99.90
20370;DHT22;10344;47.592;9.600;2023-12-20T00:55:26;4.80;99.90
20370;DHT22;10344;47.592;9.600;2023-12-20T00:57:52;4.70;99.90
20370;DHT22;10344;47.592;9.600;2023-12-20T01:00:18;4.70;99.90
20370;DHT22;10344;47.592;9.600;2023-12-20T01:02:44;4.70;99.90
20370;DHT22;10344;47.592;9.600;2023-12-20T01:05:12;4.80;99.90
20370;DHT22;10344;47.592;9.600;2023-12-20T01:07:40;4.90;99.90
20370;DHT22;10344;47.592;9.600;2023-12-20T01:10:05;5.10;99.90
20370;DHT22;10344;47.592;9.600;2023-12-20T01:12:31;5.40;99.90
20370;DHT22;10344;47.592;9.600;2023-12-20T01:14:57;5.60;99.90
20370;DHT22;10344;47.592;9.600;2023-12-20T01:17:24;5.60;99.90
20370;DHT22;10344;47.592;9.600;2023-12-20T01:19:49;5.60;99.90
20370;DHT22;10344;47.592;9.600;2023-12-20T01:22:15;5.60;99.90
20370;DHT22;10344;47.592;9.600;2023-12-20T01:24:46;5.50;99.90
20370;DHT22;10344;47.592;9.600;2023-12-20T01:27:14;5.50;99.90
20370;DHT22;10344;47.592;9.600;2023-12-20T01:29:40;5.80;99.90
20370;DHT22;10344;47.592;9.600;2023-12-20T01:32:06;5.90;99.90
20370;DHT22;10344;47.592;9.600;2023-12-20T01:34:32;6.00;99.90
20370;DHT22;10344;47.592;9.600;2023-12-20T01:36:59;6.00;99.90
20370;DHT22;10344;47.592;9.600;2023-12-20T01:39:25;6.00;99.90
20370;DHT22;10344;47.592;9.600;2023-12-20T01:41:51;5.90;99.90
20370;DHT22;10344;47.592;9.600;2023-12-20T01:44:19;5.80;99.90
20370;DHT22;10344;47.592;9.600;2023-12-20T01:46:45;5.80;99.90
20370;DHT22;10344;47.592;9.600;2023-12-20T01:49:11;5.70;99.90
20370;DHT22;10344;47.592;9.600;2023-12-20T01:51:39;5.70;99.90
20370;DHT22;10344;47.592;9.600;2023-12-20T01:54:06;5.70;99.90
20370;DHT22;10344;47.592;9.600;2023-12-20T01:56:32;5.80;99.90
20370;DHT22;10344;47.592;9.600;2023-12-20T01:58:58;5.90;99.90
20370;DHT22;10344;47.592;9.600;2023-12-20T02:01:25;5.80;99.90
20370;DHT22;10344;47.592;9.600;2023-12-20T02:03:53;5.90;99.90
20370;DHT22;10344;47.592;9.600;2023-12-20T02:06:21;6.00;99.90
20370;DHT22;10344;47.592;9.600;2023-12-20T02:08:49;5.90;99.90
20370;DHT22;10344;47.592;9.600;2023-12-20T02:11:18;5.90;99.90
20370;DHT22;10344;47.592;9.600;2023-12-20T02:13:43;5.90;99.90
20370;DHT22;10344;47.592;9.600;2023-12-20T02:16:09;5.90;99.90
20370;DHT22;10344;47.592;9.600;2023-12-20T02:18:35;5.80;99.90
20370;DHT22;10344;47.592;9.600;2023-12-20T02:21:03;5.70;99.90
20370;DHT22;10344;47.592;9.600;2023-12-20T02:23:29;5.60;99.90
20370;DHT22;10344;47.592;9.600;2023-12-20T02:25:55;5.50;99.90
20370;DHT22;10344;47.592;9.600;2023-12-20T02:28:20;5.50;99.90
20370;DHT22;10344;47.592;9.600;2023-12-20T02:30:47;5.40;99.90
20370;DHT22;10344;47.592;9.600;2023-12-20T02:33:15;5.40;99.90
20370;DHT22;10344;47.592;9.600;2023-12-20T02:35:41;5.40;99.90
20370;DHT22;10344;47.592;9.600;2023-12-20T02:38:06;5.40;99.90
20370;DHT22;10344;47.592;9.600;2023-12-20T02:40:32;5.40;99.90
20370;DHT22;10344;47.592;9.600;2023-12-20T02:42:58;5.40;99.90
20370;DHT22;10344;47.592;9.600;2023-12-20T02:45:23;5.50;99.90
20370;DHT22;10344;47.592;9.600;2023-12-20T02:47:52;5.50;99.90
20370;DHT22;10344;47.592;9.600;2023-12-20T02:50:17;5.40;99.90
20370;DHT22;10344;47.592;9.600;2023-12-20T02:52:44;5.40;99.90
20370;DHT22;10344;47.592;9.600;2023-12-20T02:55:13;5.50;99.90
20370;DHT22;10344;47.592;9.600;2023-12-20T02:57:40;5.60;99.90
20370;DHT22;10344;47.592;9.600;2023-12-20T03:00:08;5.60;99.90
20370;DHT22;10344;47.592;9.600;2023-12-20T03:02:34;5.60;99.90
20370;DHT22;10344;47.592;9.600;2023-12-20T03:05:00;5.50;99.90
20370;DHT22;10344;47.592;9.600;2023-12-20T03:07:28;5.40;99.90
20370;DHT22;10344;47.592;9.600;2023-12-20T03:09:56;5.30;99.90
20370;DHT22;10344;47.592;9.600;2023-12-20T03:12:22;5.30;99.90
20370;DHT22;10344;47.592;9.600;2023-12-20T03:14:50;5.30;99.90
20370;DHT22;10344;47.592;9.600;2023-12-20T03:17:15;5.30;99.90
20370;DHT22;10344;47.592;9.600;2023-12-20T03:19:41;5.30;99.90
20370;DHT22;10344;47.592;9.600;2023-12-20T03:22:07;5.30;99.90
20370;DHT22;10344;47.592;9.600;2023-12-20T03:24:32;5.30;99.90
20370;DHT22;10344;47.592;9.600;2023-12-20T03:26:58;5.40;99.90
20370;DHT22;10344;47.592;9.600;2023-12-20T03:29:23;5.30;99.90
20370;DHT22;10344;47.592;9.600;2023-12-20T03:31:49;5.30;99.90
20370;DHT22;10344;47.592;9.600;2023-12-20T03:34:14;5.30;99.90
20370;DHT22;10344;47.592;9.600;2023-12-20T03:36:41;5.30;99.90
20370;DHT22;10344;47.592;9.600;2023-12-20T03:39:06;5.30;99.90
20370;DHT22;10344;47.592;9.600;2023-12-20T03:41:33;5.40;99.90
20370;DHT22;10344;47.592;9.600;2023-12-20T03:43:58;5.40;99.90
20370;DHT22;10344;47.592;9.600;2023-12-20T03:46:24;5.40;99.90
20370;DHT22;10344;47.592;9.600;2023-12-20T03:48:49;5.40;99.90
20370;DHT22;10344;47.592;9.600;2023-12-20T03:51:15;5.40;99.90
20370;DHT22;10344;47.592;9.600;2023-12-20T03:53:43;5.40;99.90
20370;DHT22;10344;47.592;9.600;2023-12-20T03:56:08;5.40;99.90
20370;DHT22;10344;47.592;9.600;2023-12-20T03:58:34;5.40;99.90
20370;DHT22;10344;47.592;9.600;2023-12-20T04:01:00;5.40;99.90
20370;DHT22;10344;47.592;9.600;2023-12-20T04:03:25;5.40;99.90
20370;DHT22;10344;47.592;9.600;2023-12-20T04:05:51;5.40;99.90
20370;DHT22;10344;47.592;9.600;2023-12-20T04:08:17;5.50;99.90
20370;DHT22;10344;47.592;9.600;2023-12-20T04:10:42;5.70;99.90
20370;DHT22;10344;47.592;9.600;2023-12-20T04:13:10;5.70;99.90
20370;DHT22;10344;47.592;9.600;2023-12-20T04:15:36;5.70;99.90
20370;DHT22;10344;47.592;9.600;2023-12-20T04:18:01;5.80;99.90
20370;DHT22;10344;47.592;9.600;2023-12-20T04:20:27;5.60;99.90
20370;DHT22;10344;47.592;9.600;2023-12-20T04:22:55;5.50;99.90
20370;DHT22;10344;47.592;9.600;2023-12-20T04:25:20;5.40;99.90
20370;DHT22;10344;47.592;9.600;2023-12-20T04:27:46;5.30;99.90
20370;DHT22;10344;47.592;9.600;2023-12-20T04:30:12;5.40;99.90
20370;DHT22;10344;47.592;9.600;2023-12-20T04:32:38;5.20;99.90
20370;DHT22;10344;47.592;9.600;2023-12-20T04:35:04;5.20;99.90
20370;DHT22;10344;47.592;9.600;2023-12-20T04:37:30;5.20;99.90
20370;DHT22;10344;47.592;9.600;2023-12-20T04:39:55;5.30;99.90
20370;DHT22;10344;47.592;9.600;2023-12-20T04:42:21;5.20;99.90
20370;DHT22;10344;47.592;9.600;2023-12-20T04:44:46;5.20;99.90
20370;DHT22;10344;47.592;9.600;2023-12-20T04:47:14;5.10;99.90
20370;DHT22;10344;47.592;9.600;2023-12-20T04:49:40;5.20;99.90
20370;DHT22;10344;47.592;9.600;2023-12-20T04:52:08;5.10;99.90
20370;DHT22;10344;47.592;9.600;2023-12-20T04:54:33;5.00;99.90
20370;DHT22;10344;47.592;9.600;2023-12-20T04:56:59;5.00;99.90
20370;DHT22;10344;47.592;9.600;2023-12-20T04:59:27;5.00;99.90
20370;DHT22;10344;47.592;9.600;2023-12-20T05:01:53;5.00;99.90
20370;DHT22;10344;47.592;9.600;2023-12-20T05:04:18;5.00;99.90
20370;DHT22;10344;47.592;9.600;2023-12-20T05:06:44;5.10;99.90
20370;DHT22;10344;47.592;9.600;2023-12-20T05:09:09;5.30;99.90
20370;DHT22;10344;47.592;9.600;2023-12-20T05:11:35;5.50;99.90
20370;DHT22;10344;47.592;9.600;2023-12-20T05:14:03;5.60;99.90
20370;DHT22;10344;47.592;9.600;2023-12-20T05:16:28;5.70;99.90
20370;DHT22;10344;47.592;9.600;2023-12-20T05:18:54;5.80;99.90
20370;DHT22;10344;47.592;9.600;2023-12-20T05:21:20;5.80;99.90
20370;DHT22;10344;47.592;9.600;2023-12-20T05:23:45;5.90;99.90
20370;DHT22;10344;47.592;9.600;2023-12-20T05:26:11;5.90;99.90
20370;DHT22;10344;47.592;9.600;2023-12-20T05:28:39;6.00;99.90
20370;DHT22;10344;47.592;9.600;2023-12-20T05:31:05;6.00;99.90
20370;DHT22;10344;47.592;9.600;2023-12-20T05:33:32;6.00;99.90
20370;DHT22;10344;47.592;9.600;2023-12-20T05:36:00;6.00;99.90
20370;DHT22;10344;47.592;9.600;2023-12-20T05:38:25;6.00;99.90
20370;DHT22;10344;47.592;9.600;2023-12-20T05:40:51;6.00;99.90
20370;DHT22;10344;47.592;9.600;2023-12-20T05:43:19;6.10;99.90
20370;DHT22;10344;47.592;9.600;2023-12-20T05:45:45;6.00;99.90
20370;DHT22;10344;47.592;9.600;2023-12-20T05:48:10;6.00;99.90
20370;DHT22;10344;47.592;9.600;2023-12-20T05:50:36;6.00;99.90
20370;DHT22;10344;47.592;9.600;2023-12-20T05:53:02;6.00;99.90
20370;DHT22;10344;47.592;9.600;2023-12-20T05:55:28;6.00;99.90
20370;DHT22;10344;47.592;9.600;2023-12-20T05:57:53;6.00;99.90
20370;DHT22;10344;47.592;9.600;2023-12-20T06:00:19;6.00;99.90
20370;DHT22;10344;47.592;9.600;2023-12-20T06:02:44;6.10;99.90
20370;DHT22;10344;47.592;9.600;2023-12-20T06:05:10;6.00;99.90
20370;DHT22;10344;47.592;9.600;2023-12-20T06:07:36;6.10;99.90
20370;DHT22;10344;47.592;9.600;2023-12-20T06:10:04;6.10;99.90
20370;DHT22;10344;47.592;9.600;2023-12-20T06:12:31;6.10;99.90
20370;DHT22;10344;47.592;9.600;2023-12-20T06:15:01;6.10;99.90
20370;DHT22;10344;47.592;9.600;2023-12-20T06:17:31;6.20;99.90
20370;DHT22;10344;47.592;9.600;2023-12-20T06:19:57;6.20;99.90
20370;DHT22;10344;47.592;9.600;2023-12-20T06:22:23;6.10;99.90
20370;DHT22;10344;47.592;9.600;2023-12-20T06:24:48;6.20;99.90
20370;DHT22;10344;47.592;9.600;2023-12-20T06:27:14;6.20;99.90
20370;DHT22;10344;47.592;9.600;2023-12-20T06:29:39;6.20;99.90
20370;DHT22;10344;47.592;9.600;2023-12-20T06:32:07;6.20;99.90
20370;DHT22;10344;47.592;9.600;2023-12-20T06:34:33;6.20;99.90
20370;DHT22;10344;47.592;9.600;2023-12-20T06:36:58;6.20;99.90
20370;DHT22;10344;47.592;9.600;2023-12-20T06:39:24;6.20;99.90
20370;DHT22;10344;47.592;9.600;2023-12-20T06:41:50;6.10;99.90
20370;DHT22;10344;47.592;9.600;2023-12-20T06:44:17;6.10;99.90
20370;DHT22;10344;47.592;9.600;2023-12-20T06:46:43;6.10;99.90
20370;DHT22;10344;47.592;9.600;2023-12-20T06:49:11;6.10;99.90
20370;DHT22;10344;47.592;9.600;2023-12-20T06:51:40;6.10;99.90
20370;DHT22;10344;47.592;9.600;2023-12-20T06:54:06;6.10;99.90
20370;DHT22;10344;47.592;9.600;2023-12-20T06:56:34;6.00;99.90
20370;DHT22;10344;47.592;9.600;2023-12-20T06:58:59;6.00;99.90
20370;DHT22;10344;47.592;9.600;2023-12-20T07:01:25;6.00;99.90
20370;DHT22;10344;47.592;9.600;2023-12-20T07:03:50;6.10;99.90
20370;DHT22;10344;47.592;9.600;2023-12-20T07:06:16;6.10;99.90
20370;DHT22;10344;47.592;9.600;2023-12-20T07:08:44;6.20;99.90
20370;DHT22;10344;47.592;9.600;2023-12-20T07:11:10;6.20;99.90
20370;DHT22;10344;47.592;9.600;2023-12-20T07:13:36;6.10;99.90
20370;DHT22;10344;47.592;9.600;2023-12-20T07:16:01;6.10;99.90
20370;DHT22;10344;47.592;9.600;2023-12-20T07:18:31;6.10;99.90
20370;DHT22;10344;47.592;9.600;2023-12-20T07:20:57;6.10;99.90
20370;DHT22;10344;47.592;9.600;2023-12-20T07:23:22;6.10;99.90
20370;DHT22;10344;47.592;9.600;2023-12-20T07:25:48;6.10;99.90
20370;DHT22;10344;47.592;9.600;2023-12-20T07:28:14;6.00;99.90
20370;DHT22;10344;47.592;9.600;2023-12-20T07:30:39;6.00;99.90
20370;DHT22;10344;47.592;9.600;2023-12-20T07:33:10;6.00;99.90
20370;DHT22;10344;47.592;9.600;2023-12-20T07:35:37;6.00;99.90
20370;DHT22;10344;47.592;9.600;2023-12-20T07:38:03;6.10;99.90
20370;DHT22;10344;47.592;9.600;2023-12-20T07:40:31;6.00;99.90
20370;DHT22;10344;47.592;9.600;2023-12-20T07:42:57;6.00;99.90
20370;DHT22;10344;47.592;9.600;2023-12-20T07:45:26;6.10;99.90
20370;DHT22;10344;47.592;9.600;2023-12-20T07:47:52;6.10;99.90
20370;DHT22;10344;47.592;9.600;2023-12-20T07:50:22;6.10;99.90
20370;DHT22;10344;47.592;9.600;2023-12-20T07:52:48;6.10;99.90
20370;DHT22;10344;47.592;9.600;2023-12-20T07:55:14;6.10;99.90
20370;DHT22;10344;47.592;9.600;2023-12-20T07:57:39;6.10;99.90
20370;DHT22;10344;47.592;9.600;2023-12-20T08:00:05;6.20;99.90
20370;DHT22;10344;47.592;9.600;2023-12-20T08:02:31;6.10;99.90
20370;DHT22;10344;47.592;9.600;2023-12-20T08:04:59;6.10;99.90
20370;DHT22;10344;47.592;9.600;2023-12-20T08:07:27;6.10;99.90
20370;DHT22;10344;47.592;9.600;2023-12-20T08:09:52;6.00;99.90
20370;DHT22;10344;47.592;9.600;2023-12-20T08:12:20;6.00;99.90
20370;DHT22;10344;47.592;9.600;2023-12-20T08:14:45;6.00;99.90
20370;DHT22;10344;47.592;9.600;2023-12-20T08:17:11;6.00;99.90
20370;DHT22;10344;47.592;9.600;2023-12-20T08:19:37;6.00;99.90
20370;DHT22;10344;47.592;9.600;2023-12-20T08:22:03;6.00;99.90
20370;DHT22;10344;47.592;9.600;2023-12-20T08:24:29;6.10;99.90
20370;DHT22;10344;47.592;9.600;2023-12-20T08:26:55;6.10;99.90
20370;DHT22;10344;47.592;9.600;2023-12-20T08:29:21;6.10;99.90
20370;DHT22;10344;47.592;9.600;2023-12-20T08:31:46;6.10;99.90
20370;DHT22;10344;47.592;9.600;2023-12-20T08:34:16;6.20;99.90
20370;DHT22;10344;47.592;9.600;2023-12-20T08:36:42;6.10;99.90
20370;DHT22;10344;47.592;9.600;2023-12-20T08:39:08;6.20;99.90
20370;DHT22;10344;47.592;9.600;2023-12-20T08:41:35;6.20;99.90
20370;DHT22;10344;47.592;9.600;2023-12-20T08:44:01;6.20;99.90
20370;DHT22;10344;47.592;9.600;2023-12-20T08:46:26;6.20;99.90
20370;DHT22;10344;47.592;9.600;2023-12-20T08:48:52;6.20;99.90
20370;DHT22;10344;47.592;9.600;2023-12-20T08:51:18;6.30;99.90
20370;DHT22;10344;47.592;9.600;2023-12-20T08:53:44;6.40;99.90
20370;DHT22;10344;47.592;9.600;2023-12-20T08:56:15;6.50;99.90
20370;DHT22;10344;47.592;9.600;2023-12-20T08:58:42;6.50;99.90
20370;DHT22;10344;47.592;9.600;2023-12-20T09:01:07;6.50;99.90
20370;DHT22;10344;47.592;9.600;2023-12-20T09:03:33;6.50;99.90
20370;DHT22;10344;47.592;9.600;2023-12-20T09:05:58;6.50;99.90
20370;DHT22;10344;47.592;9.600;2023-12-20T09:08:24;6.50;99.90
20370;DHT22;10344;47.592;9.600;2023-12-20T09:10:50;6.50;99.90
20370;DHT22;10344;47.592;9.600;2023-12-20T09:13:18;6.60;99.90
20370;DHT22;10344;47.592;9.600;2023-12-20T09:15:46;6.60;99.90
20370;DHT22;10344;47.592;9.600;2023-12-20T09:18:12;6.60;99.90
20370;DHT22;10344;47.592;9.600;2023-12-20T09:20:39;6.70;99.90
20370;DHT22;10344;47.592;9.600;2023-12-20T09:23:05;6.60;99.90
20370;DHT22;10344;47.592;9.600;2023-12-20T09:25:35;6.70;99.90
20370;DHT22;10344;47.592;9.600;2023-12-20T09:28:03;6.70;99.90
20370;DHT22;10344;47.592;9.600;2023-12-20T09:30:29;6.60;99.90
20370;DHT22;10344;47.592;9.600;2023-12-20T09:32:55;6.60;99.90
20370;DHT22;10344;47.592;9.600;2023-12-20T09:35:21;6.60;99.90
20370;DHT22;10344;47.592;9.600;2023-12-20T09:37:46;6.60;99.90
20370;DHT22;10344;47.592;9.600;2023-12-20T09:40:18;6.60;99.90
20370;DHT22;10344;47.592;9.600;2023-12-20T09:45:14;6.60;99.90
20370;DHT22;10344;47.592;9.600;2023-12-20T09:47:43;6.70;99.90
20370;DHT22;10344;47.592;9.600;2023-12-20T09:50:09;6.80;99.90
20370;DHT22;10344;47.592;9.600;2023-12-20T09:52:38;6.90;99.90
20370;DHT22;10344;47.592;9.600;2023-12-20T09:55:05;7.00;99.90
20370;DHT22;10344;47.592;9.600;2023-12-20T09:57:33;7.00;99.90
20370;DHT22;10344;47.592;9.600;2023-12-20T09:59:59;7.00;99.90
20370;DHT22;10344;47.592;9.600;2023-12-20T10:02:25;6.90;99.90
20370;DHT22;10344;47.592;9.600;2023-12-20T10:04:55;7.00;99.90
20370;DHT22;10344;47.592;9.600;2023-12-20T10:07:21;6.90;99.90
20370;DHT22;10344;47.592;9.600;2023-12-20T10:09:48;7.00;99.90
20370;DHT22;10344;47.592;9.600;2023-12-20T10:12:14;7.00;99.90
20370;DHT22;10344;47.592;9.600;2023-12-20T10:14:39;7.10;99.90
20370;DHT22;10344;47.592;9.600;2023-12-20T10:17:06;7.10;99.90
20370;DHT22;10344;47.592;9.600;2023-12-20T10:19:32;7.10;99.90
20370;DHT22;10344;47.592;9.600;2023-12-20T10:22:03;7.10;99.90
20370;DHT22;10344;47.592;9.600;2023-12-20T10:24:29;7.10;99.90
20370;DHT22;10344;47.592;9.600;2023-12-20T10:27:06;7.10;99.90
20370;DHT22;10344;47.592;9.600;2023-12-20T10:29:38;7.10;99.90
20370;DHT22;10344;47.592;9.600;2023-12-20T10:32:26;7.20;99.90
20370;DHT22;10344;47.592;9.600;2023-12-20T10:34:54;7.10;99.90
20370;DHT22;10344;47.592;9.600;2023-12-20T10:37:22;7.20;99.90
20370;DHT22;10344;47.592;9.600;2023-12-20T10:39:52;7.20;99.90
20370;DHT22;10344;47.592;9.600;2023-12-20T10:42:24;7.10;99.90
20370;DHT22;10344;47.592;9.600;2023-12-20T10:44:50;7.20;99.90
20370;DHT22;10344;47.592;9.600;2023-12-20T10:47:17;7.30;99.90
20370;DHT22;10344;47.592;9.600;2023-12-20T10:49:43;7.40;99.90
20370;DHT22;10344;47.592;9.600;2023-12-20T10:52:11;7.30;99.90
20370;DHT22;10344;47.592;9.600;2023-12-20T10:54:44;7.40;99.90
20370;DHT22;10344;47.592;9.600;2023-12-20T10:57:12;7.30;99.90
20370;DHT22;10344;47.592;9.600;2023-12-20T10:59:39;7.30;99.90
20370;DHT22;10344;47.592;9.600;2023-12-20T11:02:05;7.40;99.90
20370;DHT22;10344;47.592;9.600;2023-12-20T11:04:52;7.40;99.90
20370;DHT22;10344;47.592;9.600;2023-12-20T11:07:33;7.50;99.90
20370;DHT22;10344;47.592;9.600;2023-12-20T11:15:37;7.60;99.90
20370;DHT22;10344;47.592;9.600;2023-12-20T11:18:04;7.70;99.90
20370;DHT22;10344;47.592;9.600;2023-12-20T11:20:41;7.60;99.90
20370;DHT22;10344;47.592;9.600;2023-12-20T11:23:08;7.60;99.90
20370;DHT22;10344;47.592;9.600;2023-12-20T11:28:13;7.70;99.90
20370;DHT22;10344;47.592;9.600;2023-12-20T11:33:08;7.60;99.90
20370;DHT22;10344;47.592;9.600;2023-12-20T11:35:34;7.60;99.90
20370;DHT22;10344;47.592;9.600;2023-12-20T11:38:02;7.60;99.90
20370;DHT22;10344;47.592;9.600;2023-12-20T11:40:28;7.50;99.90
20370;DHT22;10344;47.592;9.600;2023-12-20T11:42:53;7.50;99.90
20370;DHT22;10344;47.592;9.600;2023-12-20T11:45:24;7.50;99.90
20370;DHT22;10344;47.592;9.600;2023-12-20T11:47:51;7.50;99.90
20370;DHT22;10344;47.592;9.600;2023-12-20T11:50:20;7.60;99.90
20370;DHT22;10344;47.592;9.600;2023-12-20T11:52:47;7.70;99.90
20370;DHT22;10344;47.592;9.600;2023-12-20T11:55:13;7.70;99.90
20370;DHT22;10344;47.592;9.600;2023-12-20T11:57:39;7.70;99.90
20370;DHT22;10344;47.592;9.600;2023-12-20T12:00:05;7.60;99.90
20370;DHT22;10344;47.592;9.600;2023-12-20T12:02:32;7.60;99.90
20370;DHT22;10344;47.592;9.600;2023-12-20T12:04:59;7.70;99.90
20370;DHT22;10344;47.592;9.600;2023-12-20T12:07:25;7.60;99.90
20370;DHT22;10344;47.592;9.600;2023-12-20T12:09:50;7.70;99.90
20370;DHT22;10344;47.592;9.600;2023-12-20T12:12:17;7.70;99.90
20370;DHT22;10344;47.592;9.600;2023-12-20T12:14:45;7.70;99.90
20370;DHT22;10344;47.592;9.600;2023-12-20T12:17:14;7.70;99.90
20370;DHT22;10344;47.592;9.600;2023-12-20T12:19:41;7.70;99.90
20370;DHT22;10344;47.592;9.600;2023-12-20T12:22:14;7.70;99.90
20370;DHT22;10344;47.592;9.600;2023-12-20T12:24:41;7.70;99.90
20370;DHT22;10344;47.592;9.600;2023-12-20T12:27:11;7.70;99.90
20370;DHT22;10344;47.592;9.600;2023-12-20T12:29:37;7.70;99.90
20370;DHT22;10344;47.592;9.600;2023-12-20T12:32:07;7.70;99.90
20370;DHT22;10344;47.592;9.600;2023-12-20T12:34:34;7.70;99.90
20370;DHT22;10344;47.592;9.600;2023-12-20T12:37:00;7.70;99.90
20370;DHT22;10344;47.592;9.600;2023-12-20T12:39:26;7.80;99.90
20370;DHT22;10344;47.592;9.600;2023-12-20T12:41:52;7.80;99.90
20370;DHT22;10344;47.592;9.600;2023-12-20T12:44:18;7.80;99.90
20370;DHT22;10344;47.592;9.600;2023-12-20T12:46:47;7.70;99.90
20370;DHT22;10344;47.592;9.600;2023-12-20T12:49:15;7.80;99.90
20370;DHT22;10344;47.592;9.600;2023-12-20T12:51:47;7.80;99.90
20370;DHT22;10344;47.592;9.600;2023-12-20T12:54:13;7.80;99.90
20370;DHT22;10344;47.592;9.600;2023-12-20T12:56:41;7.80;99.90
20370;DHT22;10344;47.592;9.600;2023-12-20T12:59:06;7.80;99.90
20370;DHT22;10344;47.592;9.600;2023-12-20T13:01:32;7.90;99.90
20370;DHT22;10344;47.592;9.600;2023-12-20T13:03:58;7.90;99.90
20370;DHT22;10344;47.592;9.600;2023-12-20T13:06:23;7.90;99.90
20370;DHT22;10344;47.592;9.600;2023-12-20T13:08:49;7.90;99.90
20370;DHT22;10344;47.592;9.600;2023-12-20T13:11:15;7.90;99.90
20370;DHT22;10344;47.592;9.600;2023-12-20T13:13:43;7.90;99.90
20370;DHT22;10344;47.592;9.600;2023-12-20T13:16:09;7.90;99.90
20370;DHT22;10344;47.592;9.600;2023-12-20T13:18:36;7.90;99.90
20370;DHT22;10344;47.592;9.600;2023-12-20T13:21:03;7.90;99.90
20370;DHT22;10344;47.592;9.600;2023-12-20T13:23:28;8.00;99.90
20370;DHT22;10344;47.592;9.600;2023-12-20T13:25:56;8.00;99.90
20370;DHT22;10344;47.592;9.600;2023-12-20T13:28:24;8.00;99.90
20370;DHT22;10344;47.592;9.600;2023-12-20T13:30:50;8.00;99.90
20370;DHT22;10344;47.592;9.600;2023-12-20T13:33:15;8.00;99.90
20370;DHT22;10344;47.592;9.600;2023-12-20T13:35:41;7.90;99.90
20370;DHT22;10344;47.592;9.600;2023-12-20T13:38:14;7.90;99.90
20370;DHT22;10344;47.592;9.600;2023-12-20T13:40:40;7.90;99.90
20370;DHT22;10344;47.592;9.600;2023-12-20T13:43:06;7.80;99.90
20370;DHT22;10344;47.592;9.600;2023-12-20T13:45:32;7.90;99.90
20370;DHT22;10344;47.592;9.600;2023-12-20T13:47:58;7.80;99.90
20370;DHT22;10344;47.592;9.600;2023-12-20T13:50:26;7.80;99.90
20370;DHT22;10344;47.592;9.600;2023-12-20T13:52:52;7.80;99.90
20370;DHT22;10344;47.592;9.600;2023-12-20T13:55:18;7.80;99.90
20370;DHT22;10344;47.592;9.600;2023-12-20T13:57:47;7.80;99.90
20370;DHT22;10344;47.592;9.600;2023-12-20T14:00:14;7.80;99.90
20370;DHT22;10344;47.592;9.600;2023-12-20T14:02:41;7.70;99.90
20370;DHT22;10344;47.592;9.600;2023-12-20T14:05:11;7.70;99.90
20370;DHT22;10344;47.592;9.600;2023-12-20T14:07:37;7.70;99.90
20370;DHT22;10344;47.592;9.600;2023-12-20T14:10:03;7.70;99.90
20370;DHT22;10344;47.592;9.600;2023-12-20T14:12:29;7.70;99.90
20370;DHT22;10344;47.592;9.600;2023-12-20T14:14:55;7.80;99.90
20370;DHT22;10344;47.592;9.600;2023-12-20T14:17:21;7.70;99.90
20370;DHT22;10344;47.592;9.600;2023-12-20T14:19:49;7.70;99.90
20370;DHT22;10344;47.592;9.600;2023-12-20T14:22:15;7.70;99.90
20370;DHT22;10344;47.592;9.600;2023-12-20T14:24:44;7.70;99.90
20370;DHT22;10344;47.592;9.600;2023-12-20T14:27:11;7.70;99.90
20370;DHT22;10344;47.592;9.600;2023-12-20T14:29:39;7.70;99.90
20370;DHT22;10344;47.592;9.600;2023-12-20T14:32:05;7.70;99.90
20370;DHT22;10344;47.592;9.600;2023-12-20T14:34:31;7.60;99.90
20370;DHT22;10344;47.592;9.600;2023-12-20T14:36:57;7.70;99.90
20370;DHT22;10344;47.592;9.600;2023-12-20T14:39:25;7.70;99.90
20370;DHT22;10344;47.592;9.600;2023-12-20T14:41:52;7.60;99.90
20370;DHT22;10344;47.592;9.600;2023-12-20T14:44:19;7.60;99.90
20370;DHT22;10344;47.592;9.600;2023-12-20T14:46:45;7.60;99.90
20370;DHT22;10344;47.592;9.600;2023-12-20T14:49:10;7.50;99.90
20370;DHT22;10344;47.592;9.600;2023-12-20T14:51:36;7.40;99.90
20370;DHT22;10344;47.592;9.600;2023-12-20T14:54:02;7.40;99.90
20370;DHT22;10344;47.592;9.600;2023-12-20T14:56:28;7.30;99.90
20370;DHT22;10344;47.592;9.600;2023-12-20T14:58:54;7.30;99.90
20370;DHT22;10344;47.592;9.600;2023-12-20T15:01:22;7.20;99.90
20370;DHT22;10344;47.592;9.600;2023-12-20T15:03:49;7.10;99.90
20370;DHT22;10344;47.592;9.600;2023-12-20T15:06:14;7.20;99.90
20370;DHT22;10344;47.592;9.600;2023-12-20T15:08:40;7.10;99.90
20370;DHT22;10344;47.592;9.600;2023-12-20T15:11:06;7.10;99.90
20370;DHT22;10344;47.592;9.600;2023-12-20T15:13:32;7.10;99.90
20370;DHT22;10344;47.592;9.600;2023-12-20T15:15:59;7.00;99.90
20370;DHT22;10344;47.592;9.600;2023-12-20T15:18:28;6.90;99.90
20370;DHT22;10344;47.592;9.600;2023-12-20T15:20:55;6.90;99.90
20370;DHT22;10344;47.592;9.600;2023-12-20T15:23:23;6.80;99.90
20370;DHT22;10344;47.592;9.600;2023-12-20T15:25:52;7.00;99.90
20370;DHT22;10344;47.592;9.600;2023-12-20T15:28:17;7.00;99.90
20370;DHT22;10344;47.592;9.600;2023-12-20T15:30:43;6.90;99.90
20370;DHT22;10344;47.592;9.600;2023-12-20T15:33:09;6.90;99.90
20370;DHT22;10344;47.592;9.600;2023-12-20T15:35:34;6.80;99.90
20370;DHT22;10344;47.592;9.600;2023-12-20T15:38:00;6.70;99.90
20370;DHT22;10344;47.592;9.600;2023-12-20T15:40:26;6.70;99.90
20370;DHT22;10344;47.592;9.600;2023-12-20T15:42:52;6.70;99.90
20370;DHT22;10344;47.592;9.600;2023-12-20T15:45:18;6.60;99.90
20370;DHT22;10344;47.592;9.600;2023-12-20T15:47:46;6.60;99.90
20370;DHT22;10344;47.592;9.600;2023-12-20T15:50:12;6.60;99.90
20370;DHT22;10344;47.592;9.600;2023-12-20T15:52:37;6.50;99.90
20370;DHT22;10344;47.592;9.600;2023-12-20T15:55:04;6.60;99.90